Gardendale, Texas
Current Conditions -  °F | °C
As of 6:53 PM on Friday 28 Nov 2014 (Local Time) from KODO Reporting Station
Clear Clear  
Wind Chill: 61°   Ceiling: Unl
Heat Index: 61°   Visibility: 10mi
Dew Point: 19°   Wind: 9mph
Humidity: 20%   Direction: 170°S
Pressure: 30.04"   Gusts: NA
Location:  32.02°N, 102.36°W
Report Text: KODO 290053Z AUTO 17008KT 10SM CLR 16/M07 A3004 RMK AO2 SLP155 T01611072
Loading
Personal Weather Stations






























Interactive Weather Map New forecast layout! Learn more

10-Day Weather Forecast

Advertisements
Track Severe Weather on mobile